Time;durP1;ratioP1;P1;durP2;ratioP2;P2;SDS_P1;SDS_P2;PMS_P1;PMS_P2;Temp;Humidity;BMP_temperature;BMP_pressure;BME280_temperature;BME280_humidity;BME280_pressure;Samples;Min_cycle;Max_cycle;Signal;HPM_P1;HPM_P2
2023/06/17 00:01:16;;;;;;;3.00;2.80;;;;;;;;;;4962392;28;20067;-83
2023/06/17 00:03:44;;;;;;;3.00;2.85;;;;;;;;;;4955663;28;20054;-83
2023/06/17 00:06:12;;;;;;;3.65;3.35;;;;;;;;;;4953120;28;20600;-82
2023/06/17 00:08:39;;;;;;;3.30;3.00;;;;;;;;;;4965272;28;20050;-83
2023/06/17 00:11:06;;;;;;;3.50;3.20;;;;;;;;;;4952001;28;20044;-83
2023/06/17 00:13:34;;;;;;;3.50;3.20;;;;;;;;;;4955914;28;20049;-83
2023/06/17 00:16:06;;;;;;;3.30;3.10;;;;;;;;;;4951887;28;20051;-82
2023/06/17 00:18:33;;;;;;;3.38;3.17;;;;;;;;;;4953911;28;20034;-83
2023/06/17 00:21:02;;;;;;;3.15;2.95;;;;;;;;;;4955303;28;20055;-83
2023/06/17 00:23:30;;;;;;;3.28;3.08;;;;;;;;;;4951520;28;20501;-82
2023/06/17 00:25:57;;;;;;;3.67;3.38;;;;;;;;;;4951291;28;20082;-83
2023/06/17 00:28:24;;;;;;;3.17;2.97;;;;;;;;;;4952569;28;20086;-82
2023/06/17 00:30:52;;;;;;;3.45;3.25;;;;;;;;;;4949953;28;20051;-82
2023/06/17 00:33:19;;;;;;;3.35;3.10;;;;;;;;;;4951300;28;20048;-82
2023/06/17 00:35:46;;;;;;;3.55;3.22;;;;;;;;;;4950080;28;20118;-83
2023/06/17 00:38:14;;;;;;;3.38;3.17;;;;;;;;;;4951585;28;20051;-82
2023/06/17 00:40:41;;;;;;;3.20;3.00;;;;;;;;;;4954584;28;20053;-82
2023/06/17 00:43:09;;;;;;;3.72;3.42;;;;;;;;;;4954054;28;20143;-82
2023/06/17 00:45:39;;;;;;;3.13;2.92;;;;;;;;;;4942441;28;20058;-82
2023/06/17 00:48:08;;;;;;;3.65;3.35;;;;;;;;;;4951745;28;20498;-82
2023/06/17 00:50:36;;;;;;;3.17;2.97;;;;;;;;;;4954608;28;20051;-82
2023/06/17 00:53:04;;;;;;;3.47;3.17;;;;;;;;;;4953187;28;20134;-82
2023/06/17 00:55:32;;;;;;;4.15;3.85;;;;;;;;;;4954275;28;20066;-83
2023/06/17 00:58:00;;;;;;;4.20;3.90;;;;;;;;;;4952437;28;20051;-82
2023/06/17 01:00:28;;;;;;;4.10;3.80;;;;;;;;;;4950771;28;20131;-82
2023/06/17 01:02:56;;;;;;;3.72;3.53;;;;;;;;;;4951576;28;20070;-82
2023/06/17 01:05:25;;;;;;;3.85;3.58;;;;;;;;;;4952187;28;20129;-82
2023/06/17 01:08:05;;;;;;;4.10;3.80;;;;;;;;;;4954425;28;20057;-83
2023/06/17 01:10:33;;;;;;;4.07;3.63;;;;;;;;;;4956274;28;20051;-82
2023/06/17 01:13:01;;;;;;;4.40;4.00;;;;;;;;;;4960558;28;20047;-83
2023/06/17 01:15:29;;;;;;;4.60;4.20;;;;;;;;;;4958275;28;20051;-83
2023/06/17 01:17:58;;;;;;;4.22;3.92;;;;;;;;;;4951421;28;20047;-82
2023/06/17 01:20:26;;;;;;;4.38;3.97;;;;;;;;;;4950236;28;20062;-82
2023/06/17 01:22:54;;;;;;;4.57;4.20;;;;;;;;;;4949912;28;20071;-82
2023/06/17 01:25:29;;;;;;;4.40;4.10;;;;;;;;;;4953843;28;20055;-82
2023/06/17 01:28:19;;;;;;;4.18;3.88;;;;;;;;;;4950126;28;20043;-82
2023/06/17 01:30:47;;;;;;;4.18;3.88;;;;;;;;;;4951488;28;20044;-82
2023/06/17 01:33:15;;;;;;;4.05;3.75;;;;;;;;;;4958505;28;20464;-81
2023/06/17 01:35:46;;;;;;;4.15;3.85;;;;;;;;;;4953015;28;20472;-82
2023/06/17 01:38:18;;;;;;;4.30;4.00;;;;;;;;;;4951120;28;20070;-82
2023/06/17 01:40:47;;;;;;;4.38;4.07;;;;;;;;;;4946710;28;20047;-82
2023/06/17 01:43:16;;;;;;;4.38;4.03;;;;;;;;;;4948021;28;20047;-83
2023/06/17 01:45:45;;;;;;;4.43;3.90;;;;;;;;;;4951199;28;20059;-83
2023/06/17 01:48:14;;;;;;;4.10;3.80;;;;;;;;;;4956655;28;20045;-81
2023/06/17 01:50:42;;;;;;;4.18;3.88;;;;;;;;;;4952684;28;20054;-82
2023/06/17 01:53:09;;;;;;;3.67;3.47;;;;;;;;;;4953155;28;20816;-82
2023/06/17 01:55:36;;;;;;;4.10;3.80;;;;;;;;;;4959241;28;20039;-82
2023/06/17 01:58:04;;;;;;;4.63;4.28;;;;;;;;;;4959184;28;21163;-82
2023/06/17 02:00:31;;;;;;;4.30;4.00;;;;;;;;;;4954145;28;20047;-82
2023/06/17 02:02:58;;;;;;;4.07;3.75;;;;;;;;;;4960748;28;20057;-82
2023/06/17 02:05:26;;;;;;;4.78;4.18;;;;;;;;;;4952376;28;20043;-83
2023/06/17 02:07:55;;;;;;;3.78;3.53;;;;;;;;;;4966309;28;20131;-83
2023/06/17 02:10:22;;;;;;;3.60;3.30;;;;;;;;;;4960268;28;20484;-81
2023/06/17 02:12:49;;;;;;;4.40;4.00;;;;;;;;;;4956561;28;20038;-82
2023/06/17 02:15:17;;;;;;;4.40;4.00;;;;;;;;;;4961324;28;20040;-82
2023/06/17 02:17:44;;;;;;;3.97;3.67;;;;;;;;;;4961908;28;20955;-82
2023/06/17 02:20:12;;;;;;;4.05;3.78;;;;;;;;;;4959781;28;20076;-81
2023/06/17 02:22:41;;;;;;;4.47;4.18;;;;;;;;;;4952335;28;20063;-82
2023/06/17 02:25:08;;;;;;;4.40;4.00;;;;;;;;;;4953644;28;20065;-82
2023/06/17 02:27:36;;;;;;;4.90;4.50;;;;;;;;;;4954222;28;20533;-82
2023/06/17 02:30:03;;;;;;;4.40;4.10;;;;;;;;;;4961113;28;20039;-81
2023/06/17 02:32:31;;;;;;;4.10;3.80;;;;;;;;;;4959865;28;20051;-82
2023/06/17 02:34:58;;;;;;;4.57;4.28;;;;;;;;;;4953342;28;20057;-82
2023/06/17 02:37:26;;;;;;;4.47;4.10;;;;;;;;;;4953176;28;20046;-82
2023/06/17 02:39:53;;;;;;;4.43;4.10;;;;;;;;;;4954947;28;20094;-82
2023/06/17 02:42:23;;;;;;;4.70;4.32;;;;;;;;;;4956305;28;20059;-82
2023/06/17 02:44:50;;;;;;;5.10;4.50;;;;;;;;;;4956013;28;20596;-82
2023/06/17 02:47:18;;;;;;;4.68;4.28;;;;;;;;;;4953713;28;20063;-82
2023/06/17 02:49:45;;;;;;;4.28;3.97;;;;;;;;;;4955079;28;20553;-83
2023/06/17 02:52:13;;;;;;;5.07;4.68;;;;;;;;;;4957951;28;20055;-81
2023/06/17 02:54:42;;;;;;;5.18;4.68;;;;;;;;;;4952461;28;20568;-81
2023/06/17 02:57:16;;;;;;;4.57;4.28;;;;;;;;;;4952323;28;20105;-82
2023/06/17 02:59:44;;;;;;;4.63;4.20;;;;;;;;;;4954634;28;20196;-82
2023/06/17 03:02:11;;;;;;;4.70;4.10;;;;;;;;;;4958746;28;20778;-82
2023/06/17 03:04:39;;;;;;;4.75;4.35;;;;;;;;;;4952616;28;20059;-82
2023/06/17 03:07:07;;;;;;;4.70;4.30;;;;;;;;;;4952392;28;20053;-82
2023/06/17 03:09:34;;;;;;;4.50;4.20;;;;;;;;;;4953645;28;20054;-81
2023/06/17 03:12:03;;;;;;;4.65;4.07;;;;;;;;;;4953210;28;20051;-82
2023/06/17 03:14:30;;;;;;;5.43;4.60;;;;;;;;;;4953805;28;20516;-82
2023/06/17 03:17:02;;;;;;;4.90;4.50;;;;;;;;;;4951712;28;20043;-82
2023/06/17 03:19:30;;;;;;;5.82;4.47;;;;;;;;;;4951882;28;20075;-83
2023/06/17 03:21:59;;;;;;;4.22;3.92;;;;;;;;;;4949781;28;20051;-82
2023/06/17 03:24:30;;;;;;;4.13;3.83;;;;;;;;;;4954791;28;20469;-81
2023/06/17 03:26:58;;;;;;;4.45;4.15;;;;;;;;;;4957797;28;20051;-82
2023/06/17 03:29:27;;;;;;;4.32;3.92;;;;;;;;;;4951691;28;20061;-82
2023/06/17 03:31:56;;;;;;;4.18;3.88;;;;;;;;;;4957840;28;20053;-82
2023/06/17 03:34:27;;;;;;;4.20;3.90;;;;;;;;;;4959192;28;20086;-82
2023/06/17 03:36:56;;;;;;;4.18;3.88;;;;;;;;;;4957678;28;20130;-82
2023/06/17 03:39:24;;;;;;;4.35;4.05;;;;;;;;;;4951592;28;20036;-82
2023/06/17 03:41:52;;;;;;;4.45;4.15;;;;;;;;;;4952770;28;20043;-83
2023/06/17 03:44:21;;;;;;;4.10;3.80;;;;;;;;;;4957072;28;20453;-82
2023/06/17 03:46:48;;;;;;;4.15;3.85;;;;;;;;;;4954912;28;20083;-82
2023/06/17 03:49:15;;;;;;;4.88;4.40;;;;;;;;;;4951838;28;20059;-82
2023/06/17 03:51:43;;;;;;;4.72;3.95;;;;;;;;;;4949871;28;20066;-82
2023/06/17 03:54:11;;;;;;;4.38;4.07;;;;;;;;;;4954414;28;20114;-82
2023/06/17 03:56:38;;;;;;;4.45;4.15;;;;;;;;;;4952464;28;20136;-82
2023/06/17 03:59:05;;;;;;;4.03;3.72;;;;;;;;;;4951627;28;20043;-82
2023/06/17 04:01:35;;;;;;;3.75;3.55;;;;;;;;;;4952404;28;20055;-82
2023/06/17 04:04:03;;;;;;;4.10;3.80;;;;;;;;;;4951120;28;20066;-81
2023/06/17 04:06:30;;;;;;;4.28;3.97;;;;;;;;;;4953301;28;20646;-82
2023/06/17 04:08:57;;;;;;;4.20;3.90;;;;;;;;;;4953976;28;20086;-82
2023/06/17 04:11:24;;;;;;;4.40;4.03;;;;;;;;;;4951838;28;20494;-81
2023/06/17 04:13:52;;;;;;;3.83;3.53;;;;;;;;;;4956598;28;20137;-82
2023/06/17 04:16:21;;;;;;;4.18;3.88;;;;;;;;;;4953643;28;20403;-82
2023/06/17 04:18:49;;;;;;;4.85;4.45;;;;;;;;;;4955556;28;20047;-83
2023/06/17 04:21:16;;;;;;;4.18;3.88;;;;;;;;;;4957454;28;20119;-82
2023/06/17 04:23:44;;;;;;;4.57;3.58;;;;;;;;;;4956669;28;20059;-82
2023/06/17 04:26:13;;;;;;;3.50;3.22;;;;;;;;;;4955891;28;20051;-82
2023/06/17 04:28:41;;;;;;;4.38;3.97;;;;;;;;;;4954967;28;20066;-82
2023/06/17 04:31:10;;;;;;;4.55;4.15;;;;;;;;;;4950659;28;20039;-82
2023/06/17 04:33:40;;;;;;;4.10;3.80;;;;;;;;;;4951843;28;20043;-82
2023/06/17 04:36:08;;;;;;;3.20;3.00;;;;;;;;;;4950475;28;20051;-82
2023/06/17 04:38:41;;;;;;;4.68;4.30;;;;;;;;;;4965377;28;20138;-82
2023/06/17 04:41:09;;;;;;;4.38;4.07;;;;;;;;;;4949532;28;20050;-82
2023/06/17 04:43:36;;;;;;;4.25;3.95;;;;;;;;;;4949368;28;20057;-81
2023/06/17 04:46:08;;;;;;;3.65;3.45;;;;;;;;;;4957992;28;20701;-82
2023/06/17 04:48:37;;;;;;;4.00;3.70;;;;;;;;;;4951543;28;20042;-82
2023/06/17 04:51:05;;;;;;;4.10;3.80;;;;;;;;;;4950935;28;20039;-82
2023/06/17 04:53:33;;;;;;;4.07;3.78;;;;;;;;;;4949762;28;20738;-82
2023/06/17 04:56:04;;;;;;;4.00;3.70;;;;;;;;;;4949592;28;20696;-82
2023/06/17 04:58:32;;;;;;;3.97;3.50;;;;;;;;;;4951796;28;20066;-82
2023/06/17 05:01:13;;;;;;;4.47;4.10;;;;;;;;;;4951169;28;20418;-83
2023/06/17 05:03:41;;;;;;;4.45;4.15;;;;;;;;;;4955438;28;20046;-82
2023/06/17 05:06:09;;;;;;;4.90;4.50;;;;;;;;;;4951163;28;20567;-82
2023/06/17 05:08:36;;;;;;;4.78;4.40;;;;;;;;;;4950177;28;20098;-83
2023/06/17 05:11:03;;;;;;;4.57;4.22;;;;;;;;;;4943535;28;20083;-82
2023/06/17 05:13:34;;;;;;;4.50;4.20;;;;;;;;;;4953796;28;20509;-82
2023/06/17 05:16:02;;;;;;;5.25;3.60;;;;;;;;;;4966918;28;20130;-82
2023/06/17 05:18:31;;;;;;;5.30;3.83;;;;;;;;;;4953766;28;20095;-82
2023/06/17 05:20:59;;;;;;;3.90;3.70;;;;;;;;;;4954266;28;20129;-82
2023/06/17 05:23:26;;;;;;;4.22;3.92;;;;;;;;;;4954774;28;20051;-82
2023/06/17 05:25:54;;;;;;;4.30;4.00;;;;;;;;;;4959863;28;20070;-82
2023/06/17 05:28:21;;;;;;;4.30;4.00;;;;;;;;;;4956974;28;20058;-82
2023/06/17 05:30:49;;;;;;;4.50;4.20;;;;;;;;;;4958177;28;20066;-82
2023/06/17 05:33:19;;;;;;;4.78;4.38;;;;;;;;;;4954548;28;20046;-82
2023/06/17 05:35:48;;;;;;;5.00;4.60;;;;;;;;;;4954693;28;20050;-82
2023/06/17 05:38:16;;;;;;;4.57;4.18;;;;;;;;;;4951212;28;20122;-82
2023/06/17 05:40:43;;;;;;;4.20;3.90;;;;;;;;;;4951847;28;20121;-82
2023/06/17 05:43:11;;;;;;;4.22;3.92;;;;;;;;;;4958047;28;20053;-82
2023/06/17 05:45:39;;;;;;;4.25;3.95;;;;;;;;;;4952045;28;20517;-82
2023/06/17 05:48:06;;;;;;;5.20;4.75;;;;;;;;;;4953015;28;20123;-82
2023/06/17 05:50:34;;;;;;;4.45;4.15;;;;;;;;;;4948395;28;20048;-81
2023/06/17 05:53:02;;;;;;;5.30;4.90;;;;;;;;;;4956182;28;20058;-82
2023/06/17 05:55:30;;;;;;;4.80;4.40;;;;;;;;;;4953937;28;20336;-82
2023/06/17 05:57:57;;;;;;;5.07;4.65;;;;;;;;;;4949923;28;20129;-82
2023/06/17 06:00:25;;;;;;;4.82;4.40;;;;;;;;;;4952510;28;20043;-81
2023/06/17 06:02:54;;;;;;;4.53;4.07;;;;;;;;;;4948120;28;20047;-82
2023/06/17 06:05:22;;;;;;;4.75;4.35;;;;;;;;;;4951126;28;20063;-82
2023/06/17 06:07:50;;;;;;;4.65;4.28;;;;;;;;;;4953306;28;20455;-82
2023/06/17 06:10:17;;;;;;;4.82;4.22;;;;;;;;;;4953995;28;20059;-81
2023/06/17 06:12:51;;;;;;;5.10;4.70;;;;;;;;;;4951416;28;20043;-82
2023/06/17 06:15:18;;;;;;;4.82;4.43;;;;;;;;;;4947002;28;20039;-82
2023/06/17 06:17:45;;;;;;;5.88;5.38;;;;;;;;;;4949174;28;20047;-82
2023/06/17 06:20:14;;;;;;;4.90;4.50;;;;;;;;;;4957078;28;20067;-82
2023/06/17 06:22:41;;;;;;;5.15;4.80;;;;;;;;;;4960621;28;20112;-82
2023/06/17 06:25:09;;;;;;;5.70;5.15;;;;;;;;;;4955085;28;20073;-83
2023/06/17 06:27:36;;;;;;;5.28;4.88;;;;;;;;;;4954063;28;20050;-83
2023/06/17 06:30:05;;;;;;;5.28;4.80;;;;;;;;;;4953591;28;20051;-83
2023/06/17 06:32:37;;;;;;;5.72;5.32;;;;;;;;;;4950710;28;20075;-83
2023/06/17 06:35:05;;;;;;;5.35;4.95;;;;;;;;;;4956831;28;20047;-83
2023/06/17 06:37:33;;;;;;;4.97;4.57;;;;;;;;;;4957531;28;20130;-83
2023/06/17 06:40:00;;;;;;;5.13;4.75;;;;;;;;;;4959240;28;20043;-83
2023/06/17 06:42:30;;;;;;;5.45;5.00;;;;;;;;;;4955955;28;20051;-82
2023/06/17 06:45:24;;;;;;;5.50;5.10;;;;;;;;;;4955901;28;20115;-83
2023/06/17 06:47:52;;;;;;;5.30;4.90;;;;;;;;;;4958414;28;20046;-82
2023/06/17 06:50:21;;;;;;;5.38;4.97;;;;;;;;;;4954112;28;20058;-82
2023/06/17 06:52:51;;;;;;;5.10;4.70;;;;;;;;;;4978070;28;20053;-82
2023/06/17 06:55:18;;;;;;;5.18;4.78;;;;;;;;;;4978928;28;20118;-82
2023/06/17 06:57:49;;;;;;;5.30;4.90;;;;;;;;;;4959206;28;20054;-82
2023/06/17 07:00:16;;;;;;;4.55;4.25;;;;;;;;;;4955959;28;20572;-82
2023/06/17 07:02:46;;;;;;;5.20;4.80;;;;;;;;;;4956483;28;20040;-82
2023/06/17 07:05:14;;;;;;;4.80;4.50;;;;;;;;;;4954018;28;20050;-83
2023/06/17 07:07:48;;;;;;;4.93;4.53;;;;;;;;;;4956100;28;20110;-83
2023/06/17 07:10:16;;;;;;;4.57;4.28;;;;;;;;;;4953858;28;20047;-82
2023/06/17 07:12:44;;;;;;;4.68;4.38;;;;;;;;;;4958011;28;20113;-82
2023/06/17 07:15:12;;;;;;;4.63;4.22;;;;;;;;;;4952202;28;20593;-83
2023/06/17 07:17:40;;;;;;;4.90;4.50;;;;;;;;;;4957820;28;20074;-82
2023/06/17 07:20:08;;;;;;;5.07;4.68;;;;;;;;;;4954413;28;20137;-82
2023/06/17 07:22:38;;;;;;;5.70;5.20;;;;;;;;;;4956347;28;20131;-82
2023/06/17 07:25:06;;;;;;;4.88;4.40;;;;;;;;;;4952761;28;20058;-82
2023/06/17 07:27:35;;;;;;;5.00;4.60;;;;;;;;;;4953115;28;20458;-82
2023/06/17 07:30:02;;;;;;;6.10;4.78;;;;;;;;;;4956718;28;20061;-82
2023/06/17 07:32:31;;;;;;;4.78;4.47;;;;;;;;;;4972101;28;20398;-83
2023/06/17 07:34:58;;;;;;;4.50;4.20;;;;;;;;;;4955401;28;20086;-80
2023/06/17 07:37:26;;;;;;;4.75;4.45;;;;;;;;;;4958818;28;20046;-83
2023/06/17 07:39:53;;;;;;;5.22;4.80;;;;;;;;;;4959613;28;20043;-82
2023/06/17 07:42:24;;;;;;;5.03;4.63;;;;;;;;;;4957647;28;20137;-83
2023/06/17 07:44:52;;;;;;;4.80;4.40;;;;;;;;;;4962479;28;20094;-83
2023/06/17 07:47:20;;;;;;;4.40;4.10;;;;;;;;;;4961251;28;20053;-82
2023/06/17 07:49:48;;;;;;;4.80;4.40;;;;;;;;;;4960194;28;20051;-82
2023/06/17 07:52:15;;;;;;;3.78;3.50;;;;;;;;;;4958592;28;20073;-82
2023/06/17 07:54:44;;;;;;;4.07;3.80;;;;;;;;;;4964534;28;20057;-82
2023/06/17 07:57:12;;;;;;;3.80;3.50;;;;;;;;;;4958669;28;20516;-83
2023/06/17 07:59:41;;;;;;;3.70;3.47;;;;;;;;;;4963131;28;20050;-83
2023/06/17 08:02:08;;;;;;;3.25;3.05;;;;;;;;;;4964020;28;20576;-82
2023/06/17 08:04:36;;;;;;;4.57;4.20;;;;;;;;;;4963174;28;20047;-83
2023/06/17 08:07:05;;;;;;;3.97;3.67;;;;;;;;;;4958767;28;20059;-83
2023/06/17 08:09:32;;;;;;;4.30;4.00;;;;;;;;;;4964712;28;20059;-82
2023/06/17 08:12:00;;;;;;;4.50;4.20;;;;;;;;;;4962416;28;20526;-82
2023/06/17 08:14:27;;;;;;;4.03;3.72;;;;;;;;;;4962620;28;20081;-83
2023/06/17 08:16:55;;;;;;;3.78;3.47;;;;;;;;;;4960284;28;20050;-83
2023/06/17 08:19:22;;;;;;;4.20;3.65;;;;;;;;;;4959005;28;20042;-81
2023/06/17 08:21:50;;;;;;;4.50;4.10;;;;;;;;;;4957751;28;20078;-82
2023/06/17 08:24:27;;;;;;;3.67;3.38;;;;;;;;;;4958579;28;20050;-82
2023/06/17 08:26:54;;;;;;;3.33;3.13;;;;;;;;;;4958516;28;20043;-82
2023/06/17 08:29:22;;;;;;;3.78;3.47;;;;;;;;;;4947762;28;20047;-82
2023/06/17 08:31:53;;;;;;;3.67;3.47;;;;;;;;;;4951797;28;20078;-83
2023/06/17 08:34:21;;;;;;;3.92;3.63;;;;;;;;;;4954905;28;20055;-83
2023/06/17 08:36:52;;;;;;;4.13;3.88;;;;;;;;;;4951591;28;20078;-83
2023/06/17 08:39:19;;;;;;;3.83;3.53;;;;;;;;;;4952224;28;20107;-84
2023/06/17 08:41:47;;;;;;;3.35;3.13;;;;;;;;;;4950361;28;20058;-83
2023/06/17 08:44:15;;;;;;;3.40;3.10;;;;;;;;;;4948879;28;20514;-83
2023/06/17 08:46:46;;;;;;;3.25;3.05;;;;;;;;;;4947632;28;20043;-82
2023/06/17 08:49:14;;;;;;;3.28;3.08;;;;;;;;;;4954599;28;20062;-82
2023/06/17 08:51:42;;;;;;;3.60;3.35;;;;;;;;;;4950038;28;20115;-83
2023/06/17 08:54:10;;;;;;;3.13;2.92;;;;;;;;;;4953822;28;20032;-83
2023/06/17 08:56:37;;;;;;;2.70;2.60;;;;;;;;;;4953730;28;20126;-83
2023/06/17 08:59:05;;;;;;;2.53;2.42;;;;;;;;;;4951723;28;20055;-82
2023/06/17 09:01:34;;;;;;;2.67;2.47;;;;;;;;;;4949813;28;20035;-83
2023/06/17 09:04:01;;;;;;;2.60;2.40;;;;;;;;;;4954770;28;20724;-82
2023/06/17 09:06:29;;;;;;;2.20;2.10;;;;;;;;;;4951022;28;20516;-82
2023/06/17 09:08:57;;;;;;;2.67;2.50;;;;;;;;;;4964545;28;20370;-83
2023/06/17 09:11:26;;;;;;;2.50;2.40;;;;;;;;;;4945182;28;20505;-82
2023/06/17 09:13:54;;;;;;;2.50;2.40;;;;;;;;;;4949443;28;20081;-83
2023/06/17 09:16:26;;;;;;;2.80;2.60;;;;;;;;;;4929754;29;20413;-82
2023/06/17 09:18:55;;;;;;;2.60;2.50;;;;;;;;;;4952409;28;20051;-82
2023/06/17 09:21:23;;;;;;;2.70;2.50;;;;;;;;;;4954136;28;20038;-83
2023/06/17 09:23:54;;;;;;;2.17;2.08;;;;;;;;;;4955516;28;20592;-84
2023/06/17 09:26:27;;;;;;;2.70;2.50;;;;;;;;;;4963415;28;20461;-83
2023/06/17 09:28:59;;;;;;;3.08;2.88;;;;;;;;;;4961677;28;20505;-85
2023/06/17 09:31:26;;;;;;;3.38;3.17;;;;;;;;;;4964111;28;20045;-86
2023/06/17 09:33:54;;;;;;;3.47;3.17;;;;;;;;;;4959666;28;20148;-83
2023/06/17 09:36:25;;;;;;;4.28;3.97;;;;;;;;;;4956325;28;20513;-83
2023/06/17 09:38:53;;;;;;;3.80;3.55;;;;;;;;;;4957467;28;20059;-83
2023/06/17 09:41:20;;;;;;;3.33;3.13;;;;;;;;;;4962126;28;20042;-83
2023/06/17 09:43:54;;;;;;;3.35;3.15;;;;;;;;;;4963278;28;20255;-84
2023/06/17 09:46:26;;;;;;;4.15;2.60;;;;;;;;;;4957221;28;20055;-83
2023/06/17 09:48:54;;;;;;;2.47;2.38;;;;;;;;;;4958781;28;20113;-82
2023/06/17 09:51:23;;;;;;;2.30;2.20;;;;;;;;;;4954308;28;20043;-83
2023/06/17 09:53:51;;;;;;;2.75;2.25;;;;;;;;;;4950396;28;20063;-83
2023/06/17 09:56:19;;;;;;;2.60;2.50;;;;;;;;;;4949233;28;20050;-83
2023/06/17 09:58:50;;;;;;;2.10;2.00;;;;;;;;;;4951251;28;20057;-82
2023/06/17 10:01:17;;;;;;;3.30;3.10;;;;;;;;;;4949567;28;20119;-83
2023/06/17 10:03:46;;;;;;;3.25;2.95;;;;;;;;;;4953002;28;20110;-87
2023/06/17 10:06:18;;;;;;;2.40;2.30;;;;;;;;;;4960435;28;20061;-85
2023/06/17 10:08:48;;;;;;;2.80;2.60;;;;;;;;;;4951502;28;20520;-85
2023/06/17 10:11:19;;;;;;;2.95;2.75;;;;;;;;;;4949506;28;20043;-83
2023/06/17 10:14:05;;;;;;;2.92;2.72;;;;;;;;;;4956029;28;20050;-84
2023/06/17 10:16:34;;;;;;;2.90;2.70;;;;;;;;;;4951160;28;20126;-83
2023/06/17 10:19:03;;;;;;;2.97;2.72;;;;;;;;;;4953667;28;20047;-86
2023/06/17 10:21:31;;;;;;;2.50;2.40;;;;;;;;;;4973635;28;20577;-86
2023/06/17 10:24:00;;;;;;;2.47;2.38;;;;;;;;;;4953985;28;20055;-85
2023/06/17 10:26:31;;;;;;;2.85;2.65;;;;;;;;;;4954946;28;20050;-87
2023/06/17 10:29:01;;;;;;;2.70;2.50;;;;;;;;;;4949399;28;20753;-86
2023/06/17 10:31:30;;;;;;;2.00;1.90;;;;;;;;;;4952128;28;20063;-86
2023/06/17 10:34:00;;;;;;;2.40;2.30;;;;;;;;;;4951856;28;20143;-84
2023/06/17 10:36:28;;;;;;;2.30;2.20;;;;;;;;;;4951187;28;20051;-84
2023/06/17 10:38:56;;;;;;;2.42;2.22;;;;;;;;;;4950694;28;20560;-84
2023/06/17 10:41:39;;;;;;;2.40;2.20;;;;;;;;;;4952957;28;20098;-85
2023/06/17 10:44:30;;;;;;;2.97;2.45;;;;;;;;;;4950809;28;20061;-87
2023/06/17 10:46:57;;;;;;;2.90;2.70;;;;;;;;;;4951643;28;20039;-83
2023/06/17 10:49:25;;;;;;;2.33;2.20;;;;;;;;;;4947801;28;20054;-83
2023/06/17 10:51:59;;;;;;;1.90;1.80;;;;;;;;;;4946167;28;20055;-86
2023/06/17 10:54:34;;;;;;;1.73;1.63;;;;;;;;;;4948537;28;20088;-86
2023/06/17 10:57:04;;;;;;;2.03;1.70;;;;;;;;;;4939174;28;20074;-82
2023/06/17 10:59:32;;;;;;;2.38;2.28;;;;;;;;;;4945998;28;20039;-83
2023/06/17 11:02:03;;;;;;;2.67;2.47;;;;;;;;;;4947913;28;20106;-85
2023/06/17 11:04:31;;;;;;;2.33;2.13;;;;;;;;;;4947879;28;20521;-86
2023/06/17 11:07:00;;;;;;;2.50;2.30;;;;;;;;;;4945081;28;20506;-85
2023/06/17 11:09:28;;;;;;;1.90;1.80;;;;;;;;;;4946089;28;20055;-87
2023/06/17 11:11:56;;;;;;;2.10;2.00;;;;;;;;;;4947198;28;20055;-86
2023/06/17 11:14:27;;;;;;;2.30;1.90;;;;;;;;;;4944813;28;20506;-84
2023/06/17 11:16:55;;;;;;;2.10;2.00;;;;;;;;;;4947247;28;20051;-85
2023/06/17 11:19:28;;;;;;;1.90;1.80;;;;;;;;;;4948842;28;20588;-86
2023/06/17 11:22:07;;;;;;;2.13;2.03;;;;;;;;;;4951626;28;20058;-84
2023/06/17 11:24:35;;;;;;;2.28;2.08;;;;;;;;;;4945195;28;20130;-86
2023/06/17 11:27:05;;;;;;;2.40;2.30;;;;;;;;;;4944509;28;20051;-86
2023/06/17 11:29:33;;;;;;;2.80;2.53;;;;;;;;;;4948557;28;20432;-86
2023/06/17 11:32:01;;;;;;;2.20;2.10;;;;;;;;;;4945539;28;20058;-87
2023/06/17 11:34:33;;;;;;;2.13;2.03;;;;;;;;;;4948544;28;20135;-86
2023/06/17 11:37:06;;;;;;;2.30;2.20;;;;;;;;;;4966508;28;20141;-86
2023/06/17 11:39:34;;;;;;;2.60;2.40;;;;;;;;;;4947101;28;20062;-88
2023/06/17 11:42:04;;;;;;;2.40;2.30;;;;;;;;;;4945600;28;20050;-87
2023/06/17 11:44:32;;;;;;;2.47;2.30;;;;;;;;;;4946780;28;20614;-88
2023/06/17 11:47:06;;;;;;;2.38;2.28;;;;;;;;;;4949710;28;20039;-89
2023/06/17 11:49:34;;;;;;;2.65;1.98;;;;;;;;;;4941493;28;20056;-88
2023/06/17 11:52:05;;;;;;;1.90;1.80;;;;;;;;;;4939307;28;20166;-89
2023/06/17 11:54:33;;;;;;;2.00;1.90;;;;;;;;;;4951433;28;20035;-88
2023/06/17 11:57:02;;;;;;;1.95;1.85;;;;;;;;;;4946378;28;20043;-87
2023/06/17 11:59:30;;;;;;;1.75;1.70;;;;;;;;;;4947144;28;20560;-88
2023/06/17 12:01:58;;;;;;;1.90;1.80;;;;;;;;;;4951409;28;20113;-87
2023/06/17 12:04:25;;;;;;;1.88;1.77;;;;;;;;;;4948002;28;20055;-85
2023/06/17 12:06:53;;;;;;;2.40;2.22;;;;;;;;;;4949942;28;20062;-83
2023/06/17 12:09:21;;;;;;;1.58;1.58;;;;;;;;;;4945113;28;20054;-84
2023/06/17 12:11:48;;;;;;;1.88;1.80;;;;;;;;;;4953320;28;20584;-84
2023/06/17 12:14:16;;;;;;;2.75;2.60;;;;;;;;;;4951526;28;20054;-84
2023/06/17 12:16:44;;;;;;;2.20;2.10;;;;;;;;;;4944995;28;20043;-86
2023/06/17 12:19:20;;;;;;;2.65;2.45;;;;;;;;;;4937920;28;20054;-85
2023/06/17 12:21:49;;;;;;;1.80;1.70;;;;;;;;;;4948442;28;20051;-87
2023/06/17 12:24:17;;;;;;;1.90;1.63;;;;;;;;;;4949405;28;20055;-86
2023/06/17 12:26:44;;;;;;;2.97;1.70;;;;;;;;;;4948331;28;20211;-85
2023/06/17 12:29:13;;;;;;;1.48;1.48;;;;;;;;;;4950227;28;20053;-83
2023/06/17 12:31:51;;;;;;;1.20;1.20;;;;;;;;;;4949093;28;20055;-84
2023/06/17 12:34:18;;;;;;;1.20;1.20;;;;;;;;;;4951595;28;20505;-84
2023/06/17 12:36:45;;;;;;;1.52;1.52;;;;;;;;;;4954004;28;20054;-83
2023/06/17 12:39:13;;;;;;;1.13;1.13;;;;;;;;;;4943899;28;20587;-86
2023/06/17 12:41:40;;;;;;;1.08;1.08;;;;;;;;;;4957496;28;20078;-86
2023/06/17 12:44:08;;;;;;;3.83;1.65;;;;;;;;;;4952447;28;20051;-85
2023/06/17 12:46:40;;;;;;;1.65;1.55;;;;;;;;;;4948538;28;20502;-87
2023/06/17 12:49:09;;;;;;;2.17;2.08;;;;;;;;;;4953726;28;20081;-85
2023/06/17 12:51:40;;;;;;;1.80;1.63;;;;;;;;;;4950801;28;20065;-85
2023/06/17 12:54:07;;;;;;;1.80;1.70;;;;;;;;;;4950313;28;20051;-86
2023/06/17 12:56:37;;;;;;;1.83;1.73;;;;;;;;;;4950117;28;20597;-84
2023/06/17 12:59:04;;;;;;;2.55;2.00;;;;;;;;;;4957621;28;20134;-84
2023/06/17 13:01:32;;;;;;;1.52;1.35;;;;;;;;;;4950692;28;20048;-86
2023/06/17 13:03:59;;;;;;;1.60;1.60;;;;;;;;;;4951667;28;20051;-85
2023/06/17 13:06:27;;;;;;;1.40;1.40;;;;;;;;;;4948820;28;20138;-85
2023/06/17 13:08:54;;;;;;;1.60;1.50;;;;;;;;;;4951567;28;20062;-85
2023/06/17 13:11:22;;;;;;;1.20;1.20;;;;;;;;;;4958074;28;20114;-86
2023/06/17 13:13:50;;;;;;;1.17;1.10;;;;;;;;;;4951439;28;20051;-83
2023/06/17 13:16:17;;;;;;;1.17;1.17;;;;;;;;;;4950959;28;20047;-84
2023/06/17 13:18:45;;;;;;;1.15;1.15;;;;;;;;;;4958393;28;20061;-84
2023/06/17 13:21:12;;;;;;;1.50;1.40;;;;;;;;;;4952853;28;20043;-84
2023/06/17 13:23:41;;;;;;;1.30;1.30;;;;;;;;;;4954797;28;20070;-83
2023/06/17 13:26:10;;;;;;;1.30;1.30;;;;;;;;;;4954804;28;20114;-84
2023/06/17 13:28:39;;;;;;;1.63;1.52;;;;;;;;;;4957695;28;20051;-88
2023/06/17 13:31:07;;;;;;;1.30;1.30;;;;;;;;;;4952327;28;20136;-85
2023/06/17 13:33:34;;;;;;;1.08;1.08;;;;;;;;;;4950924;28;20055;-85
2023/06/17 13:36:01;;;;;;;1.85;1.70;;;;;;;;;;4952118;28;20043;-85
2023/06/17 13:38:28;;;;;;;1.17;1.17;;;;;;;;;;4951907;28;20126;-85
2023/06/17 13:40:56;;;;;;;1.65;1.17;;;;;;;;;;4950652;28;20086;-85
2023/06/17 13:43:23;;;;;;;1.10;1.10;;;;;;;;;;4948453;28;20465;-85
2023/06/17 13:45:51;;;;;;;1.10;1.10;;;;;;;;;;4950862;28;20465;-85
2023/06/17 13:48:19;;;;;;;1.10;1.10;;;;;;;;;;4955595;28;20047;-85
2023/06/17 13:50:49;;;;;;;1.40;1.30;;;;;;;;;;4951898;28;20051;-86
2023/06/17 13:53:17;;;;;;;1.52;1.42;;;;;;;;;;4957911;28;20137;-85
2023/06/17 13:55:44;;;;;;;1.60;1.60;;;;;;;;;;4958292;28;20502;-86
2023/06/17 13:58:11;;;;;;;1.50;1.50;;;;;;;;;;4957916;28;20417;-86
2023/06/17 14:00:41;;;;;;;1.40;1.40;;;;;;;;;;4955672;28;20155;-83
2023/06/17 14:03:09;;;;;;;1.60;1.50;;;;;;;;;;4957698;28;20789;-85
2023/06/17 14:05:41;;;;;;;1.20;1.20;;;;;;;;;;4955247;28;20055;-85
2023/06/17 14:08:08;;;;;;;1.10;1.10;;;;;;;;;;4958716;28;20054;-85
2023/06/17 14:10:36;;;;;;;1.30;1.30;;;;;;;;;;4954111;28;20629;-83
2023/06/17 14:13:03;;;;;;;1.48;1.38;;;;;;;;;;4956868;28;20089;-85
2023/06/17 14:15:30;;;;;;;1.48;1.45;;;;;;;;;;4951638;28;20075;-85
2023/06/17 14:17:57;;;;;;;1.20;1.20;;;;;;;;;;4953999;28;20601;-85
2023/06/17 14:20:27;;;;;;;1.27;1.27;;;;;;;;;;4947674;28;20126;-85
2023/06/17 14:22:57;;;;;;;1.33;1.33;;;;;;;;;;4951062;28;20154;-86
2023/06/17 14:25:24;;;;;;;1.30;1.30;;;;;;;;;;4948148;28;20460;-86
2023/06/17 14:27:52;;;;;;;1.70;1.60;;;;;;;;;;4957734;28;20081;-86
2023/06/17 14:30:20;;;;;;;1.98;1.88;;;;;;;;;;4956635;28;20051;-88
2023/06/17 14:32:49;;;;;;;1.40;1.40;;;;;;;;;;4954710;28;20050;-87
2023/06/17 14:35:17;;;;;;;1.83;1.80;;;;;;;;;;4946510;28;20079;-88
2023/06/17 14:37:48;;;;;;;2.30;2.00;;;;;;;;;;4943506;28;20055;-88
2023/06/17 14:40:16;;;;;;;2.20;2.10;;;;;;;;;;4949173;28;20052;-88
2023/06/17 14:42:44;;;;;;;1.50;1.50;;;;;;;;;;4948913;28;20517;-88
2023/06/17 14:45:16;;;;;;;1.95;1.85;;;;;;;;;;4953251;28;20078;-87
2023/06/17 14:47:44;;;;;;;1.40;1.40;;;;;;;;;;4951874;28;20055;-87
2023/06/17 14:50:12;;;;;;;1.70;1.60;;;;;;;;;;4955381;28;20093;-88
2023/06/17 14:52:47;;;;;;;2.15;2.10;;;;;;;;;;4960252;28;20580;-86